MJT weather

Mytilene International Airport
Mytilene, Lesbos, Greece

Public forecast

Using degrees Celsius for public forecast. Weather courtesy of forecast.io.

Current aviation weather report (METAR) for Mytilene International Airport

Retrieved 2020/04/03 19:20 UTC (23 minutes ago):

LGMT 031920Z 26004KT 9999 FEW025 11/06 Q1016

Aviation forecast (TAF) for Mytilene International Airport

Forecast is more than 12 hours old.

Retrieved 2012/09/21 03:06 UTC (8 years ago):

TAF LGMT 210200Z 2103/2115 VRB05KT 9999 SCT020 BECMG 2103/2105 30015KT PROB30 TEMPO 2103/2106 7000 RA SCT018 BKN030 BECMG 2107/2109 29012KT